sensor_id;sensor_type;location;lat;lon;timestamp;P1;durP1;ratioP1;P2;durP2;ratioP2
67514;SDS011;60646;55.802;37.032;2023-04-30T00:00:08;19.10;;;7.53;;
67514;SDS011;60646;55.802;37.032;2023-04-30T00:02:38;20.77;;;8.30;;
67514;SDS011;60646;55.802;37.032;2023-04-30T00:05:04;20.73;;;7.55;;
67514;SDS011;60646;55.802;37.032;2023-04-30T00:07:30;19.02;;;7.97;;
67514;SDS011;60646;55.802;37.032;2023-04-30T00:09:59;16.35;;;8.10;;
67514;SDS011;60646;55.802;37.032;2023-04-30T00:12:24;16.50;;;7.18;;
67514;SDS011;60646;55.802;37.032;2023-04-30T00:14:50;15.98;;;6.95;;
67514;SDS011;60646;55.802;37.032;2023-04-30T00:17:16;15.10;;;6.38;;
67514;SDS011;60646;55.802;37.032;2023-04-30T00:19:42;15.27;;;6.88;;
67514;SDS011;60646;55.802;37.032;2023-04-30T00:22:08;14.38;;;6.93;;
67514;SDS011;60646;55.802;37.032;2023-04-30T00:24:33;14.75;;;7.03;;
67514;SDS011;60646;55.802;37.032;2023-04-30T00:26:59;17.88;;;7.20;;
67514;SDS011;60646;55.802;37.032;2023-04-30T00:29:25;15.52;;;6.80;;
67514;SDS011;60646;55.802;37.032;2023-04-30T00:31:50;17.20;;;7.47;;
67514;SDS011;60646;55.802;37.032;2023-04-30T00:34:16;16.02;;;7.15;;
67514;SDS011;60646;55.802;37.032;2023-04-30T00:36:42;14.77;;;7.53;;
67514;SDS011;60646;55.802;37.032;2023-04-30T00:39:08;17.52;;;7.95;;
67514;SDS011;60646;55.802;37.032;2023-04-30T00:41:34;15.38;;;7.95;;
67514;SDS011;60646;55.802;37.032;2023-04-30T00:44:00;15.38;;;6.82;;
67514;SDS011;60646;55.802;37.032;2023-04-30T00:46:27;18.27;;;7.78;;
67514;SDS011;60646;55.802;37.032;2023-04-30T00:48:53;15.65;;;7.07;;
67514;SDS011;60646;55.802;37.032;2023-04-30T00:51:19;15.43;;;7.00;;
67514;SDS011;60646;55.802;37.032;2023-04-30T00:53:45;16.50;;;7.50;;
67514;SDS011;60646;55.802;37.032;2023-04-30T00:56:12;21.30;;;7.03;;
67514;SDS011;60646;55.802;37.032;2023-04-30T00:58:40;17.25;;;6.78;;
67514;SDS011;60646;55.802;37.032;2023-04-30T01:01:07;19.80;;;7.63;;
67514;SDS011;60646;55.802;37.032;2023-04-30T01:03:34;16.92;;;7.60;;
67514;SDS011;60646;55.802;37.032;2023-04-30T01:06:01;20.40;;;7.68;;
67514;SDS011;60646;55.802;37.032;2023-04-30T01:08:28;15.18;;;6.70;;
67514;SDS011;60646;55.802;37.032;2023-04-30T01:13:44;13.65;;;6.55;;
67514;SDS011;60646;55.802;37.032;2023-04-30T01:16:24;15.57;;;6.93;;
67514;SDS011;60646;55.802;37.032;2023-04-30T01:18:56;15.68;;;7.20;;
67514;SDS011;60646;55.802;37.032;2023-04-30T01:21:26;12.35;;;5.70;;
67514;SDS011;60646;55.802;37.032;2023-04-30T01:29:13;15.48;;;5.35;;
67514;SDS011;60646;55.802;37.032;2023-04-30T01:31:42;12.27;;;5.57;;
67514;SDS011;60646;55.802;37.032;2023-04-30T01:34:09;11.88;;;5.60;;
67514;SDS011;60646;55.802;37.032;2023-04-30T01:44:23;13.00;;;5.97;;
67514;SDS011;60646;55.802;37.032;2023-04-30T01:47:06;13.85;;;5.60;;
67514;SDS011;60646;55.802;37.032;2023-04-30T01:52:39;8.13;;;5.00;;
67514;SDS011;60646;55.802;37.032;2023-04-30T01:55:12;13.48;;;5.82;;
67514;SDS011;60646;55.802;37.032;2023-04-30T01:57:54;16.50;;;5.93;;
67514;SDS011;60646;55.802;37.032;2023-04-30T02:00:41;10.23;;;5.30;;
67514;SDS011;60646;55.802;37.032;2023-04-30T02:03:07;12.05;;;5.75;;
67514;SDS011;60646;55.802;37.032;2023-04-30T02:05:33;11.15;;;5.43;;
67514;SDS011;60646;55.802;37.032;2023-04-30T02:07:59;14.52;;;5.82;;
67514;SDS011;60646;55.802;37.032;2023-04-30T02:10:25;12.18;;;5.55;;
67514;SDS011;60646;55.802;37.032;2023-04-30T02:12:52;13.68;;;5.63;;
67514;SDS011;60646;55.802;37.032;2023-04-30T02:15:19;12.98;;;5.97;;
67514;SDS011;60646;55.802;37.032;2023-04-30T02:17:45;9.05;;;5.40;;
67514;SDS011;60646;55.802;37.032;2023-04-30T02:20:11;11.68;;;5.47;;
67514;SDS011;60646;55.802;37.032;2023-04-30T02:22:37;11.77;;;5.88;;
67514;SDS011;60646;55.802;37.032;2023-04-30T02:25:03;13.82;;;5.90;;
67514;SDS011;60646;55.802;37.032;2023-04-30T02:27:32;14.18;;;6.10;;
67514;SDS011;60646;55.802;37.032;2023-04-30T02:29:59;14.50;;;6.15;;
67514;SDS011;60646;55.802;37.032;2023-04-30T02:32:25;15.45;;;6.45;;
67514;SDS011;60646;55.802;37.032;2023-04-30T02:34:51;13.48;;;6.28;;
67514;SDS011;60646;55.802;37.032;2023-04-30T02:37:17;15.98;;;6.10;;
67514;SDS011;60646;55.802;37.032;2023-04-30T02:39:43;15.82;;;6.05;;
67514;SDS011;60646;55.802;37.032;2023-04-30T02:42:09;10.90;;;5.45;;
67514;SDS011;60646;55.802;37.032;2023-04-30T02:44:35;13.85;;;5.30;;
67514;SDS011;60646;55.802;37.032;2023-04-30T02:47:03;10.80;;;5.30;;
67514;SDS011;60646;55.802;37.032;2023-04-30T02:49:30;16.27;;;6.00;;
67514;SDS011;60646;55.802;37.032;2023-04-30T02:51:56;12.88;;;5.68;;
67514;SDS011;60646;55.802;37.032;2023-04-30T02:54:22;16.20;;;5.85;;
67514;SDS011;60646;55.802;37.032;2023-04-30T02:56:48;12.57;;;5.88;;
67514;SDS011;60646;55.802;37.032;2023-04-30T02:59:13;13.82;;;6.13;;
67514;SDS011;60646;55.802;37.032;2023-04-30T03:01:39;13.52;;;6.75;;
67514;SDS011;60646;55.802;37.032;2023-04-30T03:04:05;15.20;;;7.05;;
67514;SDS011;60646;55.802;37.032;2023-04-30T03:06:31;13.55;;;6.53;;
67514;SDS011;60646;55.802;37.032;2023-04-30T03:08:57;13.52;;;6.03;;
67514;SDS011;60646;55.802;37.032;2023-04-30T03:11:24;13.38;;;6.70;;
67514;SDS011;60646;55.802;37.032;2023-04-30T03:13:50;13.35;;;6.65;;
67514;SDS011;60646;55.802;37.032;2023-04-30T03:16:16;14.98;;;6.80;;
67514;SDS011;60646;55.802;37.032;2023-04-30T03:18:43;14.32;;;6.10;;
67514;SDS011;60646;55.802;37.032;2023-04-30T03:21:12;12.60;;;6.10;;
67514;SDS011;60646;55.802;37.032;2023-04-30T03:23:39;13.52;;;6.00;;
67514;SDS011;60646;55.802;37.032;2023-04-30T03:26:23;15.40;;;7.22;;
67514;SDS011;60646;55.802;37.032;2023-04-30T03:28:49;13.48;;;6.22;;
67514;SDS011;60646;55.802;37.032;2023-04-30T03:31:15;16.42;;;7.07;;
67514;SDS011;60646;55.802;37.032;2023-04-30T03:33:41;17.85;;;6.78;;
67514;SDS011;60646;55.802;37.032;2023-04-30T03:36:07;19.40;;;7.28;;
67514;SDS011;60646;55.802;37.032;2023-04-30T03:38:32;19.38;;;8.25;;
67514;SDS011;60646;55.802;37.032;2023-04-30T03:40:58;20.33;;;8.18;;
67514;SDS011;60646;55.802;37.032;2023-04-30T03:43:24;18.30;;;7.50;;
67514;SDS011;60646;55.802;37.032;2023-04-30T03:45:50;23.60;;;8.52;;
67514;SDS011;60646;55.802;37.032;2023-04-30T03:48:16;29.50;;;8.80;;
67514;SDS011;60646;55.802;37.032;2023-04-30T03:50:42;31.30;;;9.65;;
67514;SDS011;60646;55.802;37.032;2023-04-30T03:53:26;25.83;;;8.95;;
67514;SDS011;60646;55.802;37.032;2023-04-30T03:55:52;24.20;;;8.88;;
67514;SDS011;60646;55.802;37.032;2023-04-30T03:58:20;23.70;;;8.25;;
67514;SDS011;60646;55.802;37.032;2023-04-30T04:00:46;25.25;;;8.73;;
67514;SDS011;60646;55.802;37.032;2023-04-30T04:03:13;27.65;;;8.60;;
67514;SDS011;60646;55.802;37.032;2023-04-30T04:05:44;24.83;;;8.52;;
67514;SDS011;60646;55.802;37.032;2023-04-30T04:08:32;18.45;;;7.18;;
67514;SDS011;60646;55.802;37.032;2023-04-30T04:10:58;20.73;;;7.18;;
67514;SDS011;60646;55.802;37.032;2023-04-30T04:13:24;20.60;;;8.27;;
67514;SDS011;60646;55.802;37.032;2023-04-30T04:15:49;19.25;;;6.75;;
67514;SDS011;60646;55.802;37.032;2023-04-30T04:18:15;18.15;;;7.65;;
67514;SDS011;60646;55.802;37.032;2023-04-30T04:20:41;18.33;;;7.57;;
67514;SDS011;60646;55.802;37.032;2023-04-30T04:23:07;14.75;;;6.18;;
67514;SDS011;60646;55.802;37.032;2023-04-30T04:25:33;12.25;;;5.63;;
67514;SDS011;60646;55.802;37.032;2023-04-30T04:28:00;11.82;;;5.25;;
67514;SDS011;60646;55.802;37.032;2023-04-30T04:30:25;12.48;;;4.80;;
67514;SDS011;60646;55.802;37.032;2023-04-30T04:32:52;8.23;;;4.55;;
67514;SDS011;60646;55.802;37.032;2023-04-30T04:35:18;10.20;;;5.25;;
67514;SDS011;60646;55.802;37.032;2023-04-30T04:37:43;8.70;;;5.22;;
67514;SDS011;60646;55.802;37.032;2023-04-30T04:40:10;9.13;;;4.90;;
67514;SDS011;60646;55.802;37.032;2023-04-30T04:42:37;9.93;;;5.13;;
67514;SDS011;60646;55.802;37.032;2023-04-30T04:45:04;9.40;;;5.30;;
67514;SDS011;60646;55.802;37.032;2023-04-30T04:47:32;12.32;;;6.05;;
67514;SDS011;60646;55.802;37.032;2023-04-30T04:49:58;8.23;;;5.22;;
67514;SDS011;60646;55.802;37.032;2023-04-30T04:52:25;11.13;;;5.60;;
67514;SDS011;60646;55.802;37.032;2023-04-30T04:54:51;10.07;;;5.47;;
67514;SDS011;60646;55.802;37.032;2023-04-30T04:57:17;9.15;;;4.85;;
67514;SDS011;60646;55.802;37.032;2023-04-30T04:59:43;8.25;;;4.72;;
67514;SDS011;60646;55.802;37.032;2023-04-30T05:02:09;8.75;;;5.35;;
67514;SDS011;60646;55.802;37.032;2023-04-30T05:04:35;7.93;;;4.15;;
67514;SDS011;60646;55.802;37.032;2023-04-30T05:07:01;8.05;;;4.63;;
67514;SDS011;60646;55.802;37.032;2023-04-30T05:09:28;10.57;;;4.38;;
67514;SDS011;60646;55.802;37.032;2023-04-30T05:11:53;6.82;;;3.80;;
67514;SDS011;60646;55.802;37.032;2023-04-30T05:14:19;9.65;;;4.32;;
67514;SDS011;60646;55.802;37.032;2023-04-30T05:16:45;10.82;;;4.65;;
67514;SDS011;60646;55.802;37.032;2023-04-30T05:19:11;7.53;;;3.97;;
67514;SDS011;60646;55.802;37.032;2023-04-30T05:21:37;8.57;;;4.43;;
67514;SDS011;60646;55.802;37.032;2023-04-30T05:24:04;7.18;;;4.25;;
67514;SDS011;60646;55.802;37.032;2023-04-30T05:26:30;12.45;;;4.57;;
67514;SDS011;60646;55.802;37.032;2023-04-30T05:28:56;9.05;;;5.22;;
67514;SDS011;60646;55.802;37.032;2023-04-30T05:31:22;8.20;;;4.45;;
67514;SDS011;60646;55.802;37.032;2023-04-30T05:33:47;6.50;;;3.45;;
67514;SDS011;60646;55.802;37.032;2023-04-30T05:36:13;7.32;;;4.13;;
67514;SDS011;60646;55.802;37.032;2023-04-30T05:38:39;7.55;;;4.20;;
67514;SDS011;60646;55.802;37.032;2023-04-30T05:41:04;7.45;;;4.05;;
67514;SDS011;60646;55.802;37.032;2023-04-30T05:43:30;6.05;;;3.72;;
67514;SDS011;60646;55.802;37.032;2023-04-30T05:45:56;8.60;;;3.65;;
67514;SDS011;60646;55.802;37.032;2023-04-30T05:48:22;7.28;;;4.35;;
67514;SDS011;60646;55.802;37.032;2023-04-30T05:50:48;5.65;;;3.00;;
67514;SDS011;60646;55.802;37.032;2023-04-30T05:53:13;5.28;;;3.05;;
67514;SDS011;60646;55.802;37.032;2023-04-30T05:55:39;3.78;;;2.58;;
67514;SDS011;60646;55.802;37.032;2023-04-30T05:58:25;5.35;;;3.05;;
67514;SDS011;60646;55.802;37.032;2023-04-30T06:00:50;4.47;;;2.80;;
67514;SDS011;60646;55.802;37.032;2023-04-30T06:03:35;5.07;;;2.50;;
67514;SDS011;60646;55.802;37.032;2023-04-30T06:06:02;6.68;;;2.90;;
67514;SDS011;60646;55.802;37.032;2023-04-30T06:08:28;5.85;;;2.70;;
67514;SDS011;60646;55.802;37.032;2023-04-30T06:10:54;5.05;;;2.75;;
67514;SDS011;60646;55.802;37.032;2023-04-30T06:13:21;5.82;;;3.13;;
67514;SDS011;60646;55.802;37.032;2023-04-30T06:15:47;4.40;;;2.40;;
67514;SDS011;60646;55.802;37.032;2023-04-30T06:18:13;4.47;;;2.42;;
67514;SDS011;60646;55.802;37.032;2023-04-30T06:20:39;3.53;;;2.17;;
67514;SDS011;60646;55.802;37.032;2023-04-30T06:23:05;6.40;;;2.20;;
67514;SDS011;60646;55.802;37.032;2023-04-30T06:25:31;4.75;;;2.20;;
67514;SDS011;60646;55.802;37.032;2023-04-30T06:27:56;3.38;;;2.13;;
67514;SDS011;60646;55.802;37.032;2023-04-30T06:30:22;3.55;;;2.17;;
67514;SDS011;60646;55.802;37.032;2023-04-30T06:32:48;2.83;;;2.05;;
67514;SDS011;60646;55.802;37.032;2023-04-30T06:35:14;3.20;;;1.85;;
67514;SDS011;60646;55.802;37.032;2023-04-30T06:37:40;4.63;;;2.45;;
67514;SDS011;60646;55.802;37.032;2023-04-30T06:40:06;5.60;;;2.85;;
67514;SDS011;60646;55.802;37.032;2023-04-30T06:42:32;3.97;;;2.40;;
67514;SDS011;60646;55.802;37.032;2023-04-30T06:45:00;4.38;;;2.63;;
67514;SDS011;60646;55.802;37.032;2023-04-30T06:47:27;4.40;;;2.42;;
67514;SDS011;60646;55.802;37.032;2023-04-30T06:49:59;6.53;;;2.60;;
67514;SDS011;60646;55.802;37.032;2023-04-30T06:52:25;4.90;;;2.28;;
67514;SDS011;60646;55.802;37.032;2023-04-30T06:54:51;5.47;;;2.75;;
67514;SDS011;60646;55.802;37.032;2023-04-30T06:57:17;5.95;;;2.22;;
67514;SDS011;60646;55.802;37.032;2023-04-30T06:59:43;3.75;;;2.53;;
67514;SDS011;60646;55.802;37.032;2023-04-30T07:02:09;5.85;;;2.60;;
67514;SDS011;60646;55.802;37.032;2023-04-30T07:04:35;6.65;;;2.40;;
67514;SDS011;60646;55.802;37.032;2023-04-30T07:07:01;2.40;;;1.60;;
67514;SDS011;60646;55.802;37.032;2023-04-30T07:09:27;3.13;;;1.38;;
67514;SDS011;60646;55.802;37.032;2023-04-30T07:11:53;2.72;;;1.50;;
67514;SDS011;60646;55.802;37.032;2023-04-30T07:14:20;3.95;;;2.15;;
67514;SDS011;60646;55.802;37.032;2023-04-30T07:16:46;3.33;;;1.63;;
67514;SDS011;60646;55.802;37.032;2023-04-30T07:19:14;3.92;;;1.60;;
67514;SDS011;60646;55.802;37.032;2023-04-30T07:21:40;3.72;;;1.98;;
67514;SDS011;60646;55.802;37.032;2023-04-30T07:24:06;3.03;;;1.98;;
67514;SDS011;60646;55.802;37.032;2023-04-30T07:26:32;4.40;;;1.77;;
67514;SDS011;60646;55.802;37.032;2023-04-30T07:28:58;3.55;;;1.67;;
67514;SDS011;60646;55.802;37.032;2023-04-30T07:31:23;2.22;;;1.30;;
67514;SDS011;60646;55.802;37.032;2023-04-30T07:33:50;2.15;;;1.60;;
67514;SDS011;60646;55.802;37.032;2023-04-30T07:36:16;1.15;;;1.05;;
67514;SDS011;60646;55.802;37.032;2023-04-30T07:38:42;1.85;;;1.30;;
67514;SDS011;60646;55.802;37.032;2023-04-30T07:41:09;2.35;;;1.50;;
67514;SDS011;60646;55.802;37.032;2023-04-30T07:43:35;2.63;;;1.52;;
67514;SDS011;60646;55.802;37.032;2023-04-30T07:46:01;1.95;;;1.25;;
67514;SDS011;60646;55.802;37.032;2023-04-30T07:48:28;2.10;;;1.30;;
67514;SDS011;60646;55.802;37.032;2023-04-30T07:50:54;2.53;;;1.50;;
67514;SDS011;60646;55.802;37.032;2023-04-30T07:53:21;1.90;;;1.20;;
67514;SDS011;60646;55.802;37.032;2023-04-30T07:55:48;3.33;;;1.33;;
67514;SDS011;60646;55.802;37.032;2023-04-30T07:58:13;2.45;;;1.50;;
67514;SDS011;60646;55.802;37.032;2023-04-30T08:00:39;1.85;;;1.30;;
67514;SDS011;60646;55.802;37.032;2023-04-30T08:03:05;2.50;;;1.30;;
67514;SDS011;60646;55.802;37.032;2023-04-30T08:05:31;3.42;;;1.52;;
67514;SDS011;60646;55.802;37.032;2023-04-30T08:07:56;2.33;;;1.50;;
67514;SDS011;60646;55.802;37.032;2023-04-30T08:10:22;2.83;;;1.70;;
67514;SDS011;60646;55.802;37.032;2023-04-30T08:12:48;2.72;;;1.30;;
67514;SDS011;60646;55.802;37.032;2023-04-30T08:15:14;3.03;;;1.50;;
67514;SDS011;60646;55.802;37.032;2023-04-30T08:17:39;3.83;;;1.52;;
67514;SDS011;60646;55.802;37.032;2023-04-30T08:20:06;2.22;;;1.42;;
67514;SDS011;60646;55.802;37.032;2023-04-30T08:22:32;3.03;;;1.45;;
67514;SDS011;60646;55.802;37.032;2023-04-30T08:24:58;3.13;;;1.70;;
67514;SDS011;60646;55.802;37.032;2023-04-30T08:27:26;2.92;;;1.73;;
67514;SDS011;60646;55.802;37.032;2023-04-30T08:29:52;3.47;;;1.67;;
67514;SDS011;60646;55.802;37.032;2023-04-30T08:32:18;4.25;;;1.85;;
67514;SDS011;60646;55.802;37.032;2023-04-30T08:34:44;3.05;;;1.83;;
67514;SDS011;60646;55.802;37.032;2023-04-30T08:37:10;4.32;;;1.83;;
67514;SDS011;60646;55.802;37.032;2023-04-30T08:39:36;1.98;;;1.17;;
67514;SDS011;60646;55.802;37.032;2023-04-30T08:42:03;5.07;;;1.80;;
67514;SDS011;60646;55.802;37.032;2023-04-30T08:44:37;2.33;;;1.50;;
67514;SDS011;60646;55.802;37.032;2023-04-30T08:47:06;3.75;;;1.80;;
67514;SDS011;60646;55.802;37.032;2023-04-30T08:49:37;3.58;;;1.80;;
67514;SDS011;60646;55.802;37.032;2023-04-30T08:52:04;4.68;;;1.80;;
67514;SDS011;60646;55.802;37.032;2023-04-30T08:54:30;2.72;;;1.67;;
67514;SDS011;60646;55.802;37.032;2023-04-30T08:56:57;4.95;;;2.05;;
67514;SDS011;60646;55.802;37.032;2023-04-30T08:59:44;2.45;;;1.50;;
67514;SDS011;60646;55.802;37.032;2023-04-30T09:02:32;2.25;;;1.40;;
67514;SDS011;60646;55.802;37.032;2023-04-30T09:04:59;4.35;;;1.55;;
67514;SDS011;60646;55.802;37.032;2023-04-30T09:07:25;2.65;;;1.65;;
67514;SDS011;60646;55.802;37.032;2023-04-30T09:09:53;2.80;;;1.60;;
67514;SDS011;60646;55.802;37.032;2023-04-30T09:12:19;2.80;;;1.77;;
67514;SDS011;60646;55.802;37.032;2023-04-30T09:17:34;2.30;;;1.70;;
67514;SDS011;60646;55.802;37.032;2023-04-30T09:20:10;2.67;;;1.40;;
67514;SDS011;60646;55.802;37.032;2023-04-30T09:22:37;1.95;;;1.30;;
67514;SDS011;60646;55.802;37.032;2023-04-30T09:25:04;3.10;;;1.80;;
67514;SDS011;60646;55.802;37.032;2023-04-30T09:30:31;2.67;;;1.58;;
67514;SDS011;60646;55.802;37.032;2023-04-30T09:32:58;1.90;;;1.27;;
67514;SDS011;60646;55.802;37.032;2023-04-30T09:35:34;1.52;;;1.20;;
67514;SDS011;60646;55.802;37.032;2023-04-30T09:38:00;1.55;;;1.17;;
67514;SDS011;60646;55.802;37.032;2023-04-30T09:40:37;2.78;;;1.30;;
67514;SDS011;60646;55.802;37.032;2023-04-30T09:43:23;1.60;;;1.00;;
67514;SDS011;60646;55.802;37.032;2023-04-30T09:45:49;1.55;;;1.10;;
67514;SDS011;60646;55.802;37.032;2023-04-30T09:48:17;1.95;;;1.13;;
67514;SDS011;60646;55.802;37.032;2023-04-30T09:51:04;1.92;;;1.13;;
67514;SDS011;60646;55.802;37.032;2023-04-30T09:53:29;2.30;;;1.38;;
67514;SDS011;60646;55.802;37.032;2023-04-30T09:55:56;2.92;;;1.50;;
67514;SDS011;60646;55.802;37.032;2023-04-30T09:58:23;2.88;;;1.50;;
67514;SDS011;60646;55.802;37.032;2023-04-30T10:01:11;3.03;;;1.38;;
67514;SDS011;60646;55.802;37.032;2023-04-30T10:03:38;3.97;;;1.15;;
67514;SDS011;60646;55.802;37.032;2023-04-30T10:06:05;2.67;;;1.30;;
67514;SDS011;60646;55.802;37.032;2023-04-30T10:08:37;3.42;;;1.17;;
67514;SDS011;60646;55.802;37.032;2023-04-30T10:11:06;2.30;;;1.10;;
67514;SDS011;60646;55.802;37.032;2023-04-30T10:13:37;2.20;;;1.10;;
67514;SDS011;60646;55.802;37.032;2023-04-30T10:16:10;3.15;;;1.35;;
67514;SDS011;60646;55.802;37.032;2023-04-30T10:18:43;1.20;;;0.90;;
67514;SDS011;60646;55.802;37.032;2023-04-30T10:21:11;1.65;;;1.00;;
67514;SDS011;60646;55.802;37.032;2023-04-30T10:23:39;2.20;;;0.93;;
67514;SDS011;60646;55.802;37.032;2023-04-30T10:26:11;1.80;;;1.20;;
67514;SDS011;60646;55.802;37.032;2023-04-30T10:28:38;2.60;;;1.17;;
67514;SDS011;60646;55.802;37.032;2023-04-30T10:31:06;2.60;;;1.00;;
67514;SDS011;60646;55.802;37.032;2023-04-30T10:36:04;2.85;;;1.02;;
67514;SDS011;60646;55.802;37.032;2023-04-30T10:38:49;1.13;;;0.80;;
67514;SDS011;60646;55.802;37.032;2023-04-30T10:41:34;2.05;;;0.85;;
67514;SDS011;60646;55.802;37.032;2023-04-30T10:44:01;1.35;;;1.00;;
67514;SDS011;60646;55.802;37.032;2023-04-30T10:46:27;2.08;;;1.17;;
67514;SDS011;60646;55.802;37.032;2023-04-30T10:48:56;1.75;;;1.05;;
67514;SDS011;60646;55.802;37.032;2023-04-30T10:51:22;1.35;;;0.90;;
67514;SDS011;60646;55.802;37.032;2023-04-30T10:53:49;2.38;;;1.10;;
67514;SDS011;60646;55.802;37.032;2023-04-30T10:56:28;1.70;;;0.90;;
67514;SDS011;60646;55.802;37.032;2023-04-30T11:02:02;2.33;;;1.13;;
67514;SDS011;60646;55.802;37.032;2023-04-30T11:04:28;1.58;;;0.95;;
67514;SDS011;60646;55.802;37.032;2023-04-30T11:06:55;2.17;;;1.20;;
67514;SDS011;60646;55.802;37.032;2023-04-30T11:09:39;1.42;;;1.10;;
67514;SDS011;60646;55.802;37.032;2023-04-30T11:12:13;3.03;;;1.25;;
67514;SDS011;60646;55.802;37.032;2023-04-30T11:14:44;1.92;;;1.00;;
67514;SDS011;60646;55.802;37.032;2023-04-30T11:17:11;1.10;;;0.80;;
67514;SDS011;60646;55.802;37.032;2023-04-30T11:19:47;1.67;;;0.80;;
67514;SDS011;60646;55.802;37.032;2023-04-30T11:22:15;1.98;;;1.27;;
67514;SDS011;60646;55.802;37.032;2023-04-30T11:24:51;1.00;;;0.90;;
67514;SDS011;60646;55.802;37.032;2023-04-30T11:27:18;2.65;;;1.10;;
67514;SDS011;60646;55.802;37.032;2023-04-30T11:30:13;1.40;;;1.00;;
67514;SDS011;60646;55.802;37.032;2023-04-30T11:32:45;1.63;;;0.90;;
67514;SDS011;60646;55.802;37.032;2023-04-30T11:35:13;2.03;;;1.20;;
67514;SDS011;60646;55.802;37.032;2023-04-30T11:37:44;2.33;;;0.90;;
67514;SDS011;60646;55.802;37.032;2023-04-30T11:40:12;2.95;;;1.27;;
67514;SDS011;60646;55.802;37.032;2023-04-30T11:42:40;2.53;;;1.02;;
67514;SDS011;60646;55.802;37.032;2023-04-30T11:45:29;3.00;;;1.25;;
67514;SDS011;60646;55.802;37.032;2023-04-30T11:47:56;1.77;;;1.13;;
67514;SDS011;60646;55.802;37.032;2023-04-30T11:50:22;1.00;;;0.73;;
67514;SDS011;60646;55.802;37.032;2023-04-30T11:52:57;1.15;;;0.90;;
67514;SDS011;60646;55.802;37.032;2023-04-30T11:55:45;1.23;;;0.80;;
67514;SDS011;60646;55.802;37.032;2023-04-30T11:58:10;1.15;;;0.80;;
67514;SDS011;60646;55.802;37.032;2023-04-30T12:00:40;2.38;;;1.02;;
67514;SDS011;60646;55.802;37.032;2023-04-30T12:03:05;2.55;;;1.17;;
67514;SDS011;60646;55.802;37.032;2023-04-30T12:05:31;1.10;;;0.82;;
67514;SDS011;60646;55.802;37.032;2023-04-30T12:08:01;2.05;;;0.90;;
67514;SDS011;60646;55.802;37.032;2023-04-30T12:10:46;1.75;;;1.00;;
67514;SDS011;60646;55.802;37.032;2023-04-30T12:13:12;3.80;;;1.08;;
67514;SDS011;60646;55.802;37.032;2023-04-30T12:15:39;2.13;;;0.95;;
67514;SDS011;60646;55.802;37.032;2023-04-30T12:18:11;1.98;;;1.10;;
67514;SDS011;60646;55.802;37.032;2023-04-30T12:20:39;2.10;;;1.00;;
67514;SDS011;60646;55.802;37.032;2023-04-30T12:23:06;2.13;;;1.00;;
67514;SDS011;60646;55.802;37.032;2023-04-30T12:25:39;2.92;;;1.38;;
67514;SDS011;60646;55.802;37.032;2023-04-30T12:28:06;2.35;;;1.50;;
67514;SDS011;60646;55.802;37.032;2023-04-30T12:30:32;1.67;;;1.15;;
67514;SDS011;60646;55.802;37.032;2023-04-30T12:32:58;3.20;;;1.27;;
67514;SDS011;60646;55.802;37.032;2023-04-30T12:35:26;2.10;;;1.48;;
67514;SDS011;60646;55.802;37.032;2023-04-30T12:38:00;4.43;;;1.80;;
67514;SDS011;60646;55.802;37.032;2023-04-30T12:40:28;4.68;;;1.60;;
67514;SDS011;60646;55.802;37.032;2023-04-30T12:43:13;2.28;;;1.25;;
67514;SDS011;60646;55.802;37.032;2023-04-30T12:45:44;2.95;;;1.40;;
67514;SDS011;60646;55.802;37.032;2023-04-30T12:48:12;2.38;;;1.50;;
67514;SDS011;60646;55.802;37.032;2023-04-30T12:50:39;3.50;;;1.20;;
67514;SDS011;60646;55.802;37.032;2023-04-30T12:53:05;2.53;;;2.00;;
67514;SDS011;60646;55.802;37.032;2023-04-30T12:55:34;3.28;;;1.83;;
67514;SDS011;60646;55.802;37.032;2023-04-30T12:58:04;5.03;;;1.30;;
67514;SDS011;60646;55.802;37.032;2023-04-30T13:00:45;4.25;;;1.60;;
67514;SDS011;60646;55.802;37.032;2023-04-30T13:03:19;2.13;;;1.50;;
67514;SDS011;60646;55.802;37.032;2023-04-30T13:06:08;1.75;;;1.30;;
67514;SDS011;60646;55.802;37.032;2023-04-30T13:09:02;2.00;;;1.10;;
67514;SDS011;60646;55.802;37.032;2023-04-30T13:11:29;7.63;;;3.88;;
67514;SDS011;60646;55.802;37.032;2023-04-30T13:14:16;5.05;;;2.40;;
67514;SDS011;60646;55.802;37.032;2023-04-30T13:16:42;3.30;;;2.33;;
67514;SDS011;60646;55.802;37.032;2023-04-30T13:19:09;4.70;;;1.92;;
67514;SDS011;60646;55.802;37.032;2023-04-30T13:21:35;4.10;;;2.08;;
67514;SDS011;60646;55.802;37.032;2023-04-30T13:24:20;50.72;;;14.13;;
67514;SDS011;60646;55.802;37.032;2023-04-30T13:26:46;35.28;;;12.02;;
67514;SDS011;60646;55.802;37.032;2023-04-30T13:29:12;14.07;;;6.00;;
67514;SDS011;60646;55.802;37.032;2023-04-30T13:31:38;10.65;;;5.10;;
67514;SDS011;60646;55.802;37.032;2023-04-30T13:34:04;7.32;;;3.17;;
67514;SDS011;60646;55.802;37.032;2023-04-30T13:36:48;6.45;;;3.00;;
67514;SDS011;60646;55.802;37.032;2023-04-30T13:39:14;6.00;;;2.47;;
67514;SDS011;60646;55.802;37.032;2023-04-30T13:41:40;6.80;;;3.40;;
67514;SDS011;60646;55.802;37.032;2023-04-30T13:44:24;4.93;;;2.97;;
67514;SDS011;60646;55.802;37.032;2023-04-30T13:46:50;5.07;;;2.42;;
67514;SDS011;60646;55.802;37.032;2023-04-30T13:49:16;5.85;;;1.95;;
67514;SDS011;60646;55.802;37.032;2023-04-30T13:51:42;4.07;;;2.20;;
67514;SDS011;60646;55.802;37.032;2023-04-30T13:54:08;5.93;;;1.70;;
67514;SDS011;60646;55.802;37.032;2023-04-30T13:56:34;5.22;;;2.20;;
67514;SDS011;60646;55.802;37.032;2023-04-30T13:59:00;3.97;;;2.35;;
67514;SDS011;60646;55.802;37.032;2023-04-30T14:01:25;3.42;;;1.75;;
67514;SDS011;60646;55.802;37.032;2023-04-30T14:04:10;2.45;;;1.48;;
67514;SDS011;60646;55.802;37.032;2023-04-30T14:06:36;3.78;;;2.17;;
67514;SDS011;60646;55.802;37.032;2023-04-30T14:09:03;2.33;;;1.65;;
67514;SDS011;60646;55.802;37.032;2023-04-30T14:11:28;6.40;;;1.42;;
67514;SDS011;60646;55.802;37.032;2023-04-30T14:14:13;2.35;;;1.40;;
67514;SDS011;60646;55.802;37.032;2023-04-30T14:16:40;3.28;;;1.50;;
67514;SDS011;60646;55.802;37.032;2023-04-30T14:19:06;3.10;;;1.70;;
67514;SDS011;60646;55.802;37.032;2023-04-30T14:21:32;3.20;;;1.77;;
67514;SDS011;60646;55.802;37.032;2023-04-30T14:23:58;4.88;;;1.90;;
67514;SDS011;60646;55.802;37.032;2023-04-30T14:26:24;3.83;;;1.92;;
67514;SDS011;60646;55.802;37.032;2023-04-30T14:28:50;7.97;;;2.50;;
67514;SDS011;60646;55.802;37.032;2023-04-30T14:31:16;5.85;;;2.75;;
67514;SDS011;60646;55.802;37.032;2023-04-30T14:33:42;2.95;;;1.85;;
67514;SDS011;60646;55.802;37.032;2023-04-30T14:36:08;5.78;;;2.58;;
67514;SDS011;60646;55.802;37.032;2023-04-30T14:38:34;12.60;;;6.93;;
67514;SDS011;60646;55.802;37.032;2023-04-30T14:41:00;6.93;;;4.10;;
67514;SDS011;60646;55.802;37.032;2023-04-30T14:43:26;7.85;;;3.13;;
67514;SDS011;60646;55.802;37.032;2023-04-30T14:45:52;6.22;;;3.20;;
67514;SDS011;60646;55.802;37.032;2023-04-30T14:48:17;6.95;;;2.35;;
67514;SDS011;60646;55.802;37.032;2023-04-30T14:50:43;4.28;;;2.50;;
67514;SDS011;60646;55.802;37.032;2023-04-30T14:53:09;3.65;;;2.15;;
67514;SDS011;60646;55.802;37.032;2023-04-30T14:55:37;5.28;;;2.25;;
67514;SDS011;60646;55.802;37.032;2023-04-30T14:58:04;4.55;;;2.28;;
67514;SDS011;60646;55.802;37.032;2023-04-30T15:00:30;4.05;;;2.08;;
67514;SDS011;60646;55.802;37.032;2023-04-30T15:02:57;5.32;;;2.67;;
67514;SDS011;60646;55.802;37.032;2023-04-30T15:05:24;4.28;;;1.90;;
67514;SDS011;60646;55.802;37.032;2023-04-30T15:07:50;4.68;;;2.55;;